sensor_id;sensor_type;location;lat;lon;timestamp;pressure;altitude;pressure_sealevel;temperature;humidity
2268;BME280;11052;43.338;25.502;2023-04-01T00:01:26;99619.88;;;9.45;100.00
2268;BME280;11052;43.338;25.502;2023-04-01T00:03:53;99619.91;;;9.67;100.00
2268;BME280;11052;43.338;25.502;2023-04-01T00:06:21;99611.16;;;9.93;100.00
2268;BME280;11052;43.338;25.502;2023-04-01T00:08:49;99614.72;;;10.12;100.00
2268;BME280;11052;43.338;25.502;2023-04-01T00:11:16;99614.94;;;10.29;100.00
2268;BME280;11052;43.338;25.502;2023-04-01T00:13:44;99626.03;;;10.33;100.00
2268;BME280;11052;43.338;25.502;2023-04-01T00:16:12;99618.56;;;10.25;100.00
2268;BME280;11052;43.338;25.502;2023-04-01T00:18:40;99617.38;;;10.10;100.00
2268;BME280;11052;43.338;25.502;2023-04-01T00:21:07;99607.16;;;10.07;100.00
2268;BME280;11052;43.338;25.502;2023-04-01T00:23:34;99604.78;;;10.01;100.00
2268;BME280;11052;43.338;25.502;2023-04-01T00:26:02;99601.19;;;10.05;100.00
2268;BME280;11052;43.338;25.502;2023-04-01T00:28:30;99594.63;;;9.97;100.00
2268;BME280;11052;43.338;25.502;2023-04-01T00:31:04;99580.81;;;10.18;100.00
2268;BME280;11052;43.338;25.502;2023-04-01T00:33:33;99585.97;;;10.20;100.00
2268;BME280;11052;43.338;25.502;2023-04-01T00:36:06;99581.19;;;10.09;100.00
2268;BME280;11052;43.338;25.502;2023-04-01T00:38:34;99581.13;;;10.10;100.00
2268;BME280;11052;43.338;25.502;2023-04-01T00:41:01;99580.44;;;10.29;100.00
2268;BME280;11052;43.338;25.502;2023-04-01T00:43:28;99576.22;;;10.26;100.00
2268;BME280;11052;43.338;25.502;2023-04-01T00:45:56;99583.28;;;10.43;100.00
2268;BME280;11052;43.338;25.502;2023-04-01T00:48:25;99574.47;;;10.27;100.00
2268;BME280;11052;43.338;25.502;2023-04-01T00:51:01;99575.72;;;10.16;100.00
2268;BME280;11052;43.338;25.502;2023-04-01T00:53:30;99576.34;;;10.23;100.00
2268;BME280;11052;43.338;25.502;2023-04-01T00:56:00;99572.47;;;10.33;100.00
2268;BME280;11052;43.338;25.502;2023-04-01T00:58:31;99567.09;;;10.38;100.00
2268;BME280;11052;43.338;25.502;2023-04-01T01:01:00;99556.47;;;10.44;100.00
2268;BME280;11052;43.338;25.502;2023-04-01T01:03:28;99550.97;;;10.51;100.00
2268;BME280;11052;43.338;25.502;2023-04-01T01:06:11;99550.25;;;10.48;100.00
2268;BME280;11052;43.338;25.502;2023-04-01T01:09:02;99559.09;;;10.42;100.00
2268;BME280;11052;43.338;25.502;2023-04-01T01:11:37;99551.69;;;10.35;100.00
2268;BME280;11052;43.338;25.502;2023-04-01T01:14:15;99544.69;;;10.57;100.00
2268;BME280;11052;43.338;25.502;2023-04-01T01:16:50;99542.78;;;10.61;100.00
2268;BME280;11052;43.338;25.502;2023-04-01T01:19:33;99543.38;;;10.67;100.00
2268;BME280;11052;43.338;25.502;2023-04-01T01:22:18;99533.41;;;10.78;100.00
2268;BME280;11052;43.338;25.502;2023-04-01T01:24:55;99540.41;;;10.76;100.00
2268;BME280;11052;43.338;25.502;2023-04-01T01:27:29;99535.72;;;10.84;100.00
2268;BME280;11052;43.338;25.502;2023-04-01T01:33:13;99532.34;;;11.03;100.00
2268;BME280;11052;43.338;25.502;2023-04-01T01:35:48;99529.94;;;10.98;100.00
2268;BME280;11052;43.338;25.502;2023-04-01T01:38:18;99524.31;;;10.89;100.00
2268;BME280;11052;43.338;25.502;2023-04-01T01:40:49;99526.41;;;10.80;100.00
2268;BME280;11052;43.338;25.502;2023-04-01T01:43:22;99527.19;;;10.62;100.00
2268;BME280;11052;43.338;25.502;2023-04-01T01:45:53;99530.09;;;10.55;100.00
2268;BME280;11052;43.338;25.502;2023-04-01T01:48:22;99518.09;;;10.52;100.00
2268;BME280;11052;43.338;25.502;2023-04-01T01:50:52;99503.94;;;10.40;100.00
2268;BME280;11052;43.338;25.502;2023-04-01T01:53:20;99513.53;;;10.38;100.00
2268;BME280;11052;43.338;25.502;2023-04-01T01:55:47;99511.91;;;10.36;100.00
2268;BME280;11052;43.338;25.502;2023-04-01T01:58:19;99504.16;;;10.36;100.00
2268;BME280;11052;43.338;25.502;2023-04-01T02:00:50;99506.94;;;10.31;100.00
2268;BME280;11052;43.338;25.502;2023-04-01T02:03:21;99499.41;;;10.25;100.00
2268;BME280;11052;43.338;25.502;2023-04-01T02:05:52;99505.53;;;10.43;100.00
2268;BME280;11052;43.338;25.502;2023-04-01T02:08:22;99500.38;;;10.23;100.00
2268;BME280;11052;43.338;25.502;2023-04-01T02:10:56;99499.91;;;10.74;100.00
2268;BME280;11052;43.338;25.502;2023-04-01T02:13:29;99499.81;;;10.75;100.00
2268;BME280;11052;43.338;25.502;2023-04-01T02:16:00;99494.34;;;10.63;100.00
2268;BME280;11052;43.338;25.502;2023-04-01T02:18:31;99497.78;;;10.43;100.00
2268;BME280;11052;43.338;25.502;2023-04-01T02:21:03;99490.28;;;10.37;100.00
2268;BME280;11052;43.338;25.502;2023-04-01T02:23:33;99492.75;;;10.40;100.00
2268;BME280;11052;43.338;25.502;2023-04-01T02:26:05;99493.00;;;10.34;100.00
2268;BME280;11052;43.338;25.502;2023-04-01T02:28:34;99478.56;;;10.28;100.00
2268;BME280;11052;43.338;25.502;2023-04-01T02:31:03;99471.28;;;10.16;100.00
2268;BME280;11052;43.338;25.502;2023-04-01T02:33:31;99474.88;;;9.92;100.00
2268;BME280;11052;43.338;25.502;2023-04-01T02:35:59;99473.47;;;9.83;100.00
2268;BME280;11052;43.338;25.502;2023-04-01T02:38:27;99476.06;;;9.83;100.00
2268;BME280;11052;43.338;25.502;2023-04-01T02:40:58;99469.34;;;9.79;100.00
2268;BME280;11052;43.338;25.502;2023-04-01T02:43:25;99467.41;;;9.84;100.00
2268;BME280;11052;43.338;25.502;2023-04-01T02:45:53;99450.91;;;9.86;100.00
2268;BME280;11052;43.338;25.502;2023-04-01T02:48:20;99459.41;;;9.90;100.00
2268;BME280;11052;43.338;25.502;2023-04-01T02:50:48;99454.34;;;9.65;100.00
2268;BME280;11052;43.338;25.502;2023-04-01T02:53:16;99460.25;;;9.69;100.00
2268;BME280;11052;43.338;25.502;2023-04-01T02:55:44;99457.34;;;9.76;100.00
2268;BME280;11052;43.338;25.502;2023-04-01T02:58:11;99456.41;;;9.79;100.00
2268;BME280;11052;43.338;25.502;2023-04-01T03:00:38;99461.31;;;9.85;100.00
2268;BME280;11052;43.338;25.502;2023-04-01T03:03:06;99450.19;;;9.83;100.00
2268;BME280;11052;43.338;25.502;2023-04-01T03:05:33;99453.94;;;9.76;100.00
2268;BME280;11052;43.338;25.502;2023-04-01T03:08:00;99455.06;;;9.69;100.00
2268;BME280;11052;43.338;25.502;2023-04-01T03:10:28;99455.31;;;9.63;100.00
2268;BME280;11052;43.338;25.502;2023-04-01T03:12:56;99457.25;;;9.58;100.00
2268;BME280;11052;43.338;25.502;2023-04-01T03:15:23;99458.41;;;9.50;100.00
2268;BME280;11052;43.338;25.502;2023-04-01T03:17:51;99452.88;;;9.38;100.00
2268;BME280;11052;43.338;25.502;2023-04-01T03:20:18;99441.56;;;9.40;100.00
2268;BME280;11052;43.338;25.502;2023-04-01T03:22:45;99446.75;;;9.40;100.00
2268;BME280;11052;43.338;25.502;2023-04-01T03:25:12;99447.59;;;9.41;100.00
2268;BME280;11052;43.338;25.502;2023-04-01T03:27:40;99456.44;;;9.35;100.00
2268;BME280;11052;43.338;25.502;2023-04-01T03:30:09;99449.03;;;9.26;100.00
2268;BME280;11052;43.338;25.502;2023-04-01T03:32:36;99454.88;;;9.08;100.00
2268;BME280;11052;43.338;25.502;2023-04-01T03:35:04;99455.16;;;9.00;100.00
2268;BME280;11052;43.338;25.502;2023-04-01T03:37:31;99446.53;;;9.01;100.00
2268;BME280;11052;43.338;25.502;2023-04-01T03:39:58;99444.31;;;8.91;100.00
2268;BME280;11052;43.338;25.502;2023-04-01T03:42:25;99442.75;;;8.86;100.00
2268;BME280;11052;43.338;25.502;2023-04-01T03:44:52;99443.88;;;8.79;100.00
2268;BME280;11052;43.338;25.502;2023-04-01T03:47:21;99442.25;;;8.77;100.00
2268;BME280;11052;43.338;25.502;2023-04-01T03:49:48;99441.56;;;8.72;100.00
2268;BME280;11052;43.338;25.502;2023-04-01T03:52:15;99440.19;;;8.63;100.00
2268;BME280;11052;43.338;25.502;2023-04-01T03:54:42;99433.09;;;8.68;100.00
2268;BME280;11052;43.338;25.502;2023-04-01T03:57:09;99442.53;;;8.69;100.00
2268;BME280;11052;43.338;25.502;2023-04-01T03:59:36;99443.56;;;8.65;100.00
2268;BME280;11052;43.338;25.502;2023-04-01T04:02:04;99441.31;;;8.56;100.00
2268;BME280;11052;43.338;25.502;2023-04-01T04:04:32;99439.78;;;8.50;100.00
2268;BME280;11052;43.338;25.502;2023-04-01T04:07:00;99440.63;;;8.51;100.00
2268;BME280;11052;43.338;25.502;2023-04-01T04:09:29;99434.41;;;8.57;100.00
2268;BME280;11052;43.338;25.502;2023-04-01T04:11:56;99441.25;;;8.58;100.00
2268;BME280;11052;43.338;25.502;2023-04-01T04:14:23;99436.81;;;8.61;100.00
2268;BME280;11052;43.338;25.502;2023-04-01T04:16:50;99454.13;;;8.59;100.00
2268;BME280;11052;43.338;25.502;2023-04-01T04:19:18;99444.72;;;8.57;100.00
2268;BME280;11052;43.338;25.502;2023-04-01T04:21:46;99440.41;;;8.57;100.00
2268;BME280;11052;43.338;25.502;2023-04-01T04:24:13;99442.09;;;8.58;100.00
2268;BME280;11052;43.338;25.502;2023-04-01T04:26:40;99441.16;;;8.61;100.00
2268;BME280;11052;43.338;25.502;2023-04-01T04:29:07;99440.97;;;8.65;100.00
2268;BME280;11052;43.338;25.502;2023-04-01T04:31:34;99438.41;;;8.65;100.00
2268;BME280;11052;43.338;25.502;2023-04-01T04:34:02;99433.88;;;8.70;100.00
2268;BME280;11052;43.338;25.502;2023-04-01T04:36:29;99432.97;;;8.71;100.00
2268;BME280;11052;43.338;25.502;2023-04-01T04:38:57;99436.47;;;8.70;100.00
2268;BME280;11052;43.338;25.502;2023-04-01T04:41:27;99433.81;;;8.72;100.00
2268;BME280;11052;43.338;25.502;2023-04-01T04:43:55;99432.19;;;8.69;100.00
2268;BME280;11052;43.338;25.502;2023-04-01T04:46:24;99437.66;;;8.62;100.00
2268;BME280;11052;43.338;25.502;2023-04-01T04:48:51;99432.34;;;8.66;100.00
2268;BME280;11052;43.338;25.502;2023-04-01T04:51:19;99434.06;;;8.66;100.00
2268;BME280;11052;43.338;25.502;2023-04-01T04:53:47;99427.91;;;8.68;100.00
2268;BME280;11052;43.338;25.502;2023-04-01T04:56:19;99438.16;;;8.71;100.00
2268;BME280;11052;43.338;25.502;2023-04-01T04:58:47;99429.50;;;8.72;100.00
2268;BME280;11052;43.338;25.502;2023-04-01T05:01:15;99417.25;;;8.77;100.00
2268;BME280;11052;43.338;25.502;2023-04-01T05:03:43;99424.88;;;8.80;100.00
2268;BME280;11052;43.338;25.502;2023-04-01T05:06:12;99420.13;;;8.93;100.00
2268;BME280;11052;43.338;25.502;2023-04-01T05:08:40;99431.97;;;8.99;100.00
2268;BME280;11052;43.338;25.502;2023-04-01T05:11:10;99427.47;;;9.04;100.00
2268;BME280;11052;43.338;25.502;2023-04-01T05:13:40;99420.44;;;9.07;100.00
2268;BME280;11052;43.338;25.502;2023-04-01T05:16:08;99418.53;;;9.12;100.00
2268;BME280;11052;43.338;25.502;2023-04-01T05:18:36;99418.41;;;9.15;100.00
2268;BME280;11052;43.338;25.502;2023-04-01T05:21:03;99423.34;;;9.22;100.00
2268;BME280;11052;43.338;25.502;2023-04-01T05:23:31;99426.47;;;9.30;100.00
2268;BME280;11052;43.338;25.502;2023-04-01T05:25:58;99419.19;;;9.39;100.00
2268;BME280;11052;43.338;25.502;2023-04-01T05:28:25;99418.91;;;9.47;100.00
2268;BME280;11052;43.338;25.502;2023-04-01T05:30:54;99419.34;;;9.57;100.00
2268;BME280;11052;43.338;25.502;2023-04-01T05:33:21;99419.75;;;9.68;100.00
2268;BME280;11052;43.338;25.502;2023-04-01T05:35:48;99412.59;;;9.74;100.00
2268;BME280;11052;43.338;25.502;2023-04-01T05:38:15;99416.28;;;9.89;100.00
2268;BME280;11052;43.338;25.502;2023-04-01T05:40:42;99406.59;;;10.14;100.00
2268;BME280;11052;43.338;25.502;2023-04-01T05:43:10;99399.56;;;10.38;100.00
2268;BME280;11052;43.338;25.502;2023-04-01T05:45:37;99400.81;;;10.67;100.00
2268;BME280;11052;43.338;25.502;2023-04-01T05:48:06;99400.13;;;10.82;100.00
2268;BME280;11052;43.338;25.502;2023-04-01T05:50:33;99395.94;;;10.99;100.00
2268;BME280;11052;43.338;25.502;2023-04-01T05:53:00;99392.16;;;11.06;100.00
2268;BME280;11052;43.338;25.502;2023-04-01T05:55:27;99400.34;;;11.15;100.00
2268;BME280;11052;43.338;25.502;2023-04-01T05:57:54;99401.19;;;11.16;100.00
2268;BME280;11052;43.338;25.502;2023-04-01T06:00:22;99396.41;;;11.26;100.00
2268;BME280;11052;43.338;25.502;2023-04-01T06:02:49;99401.75;;;11.40;100.00
2268;BME280;11052;43.338;25.502;2023-04-01T06:05:20;99403.06;;;11.48;100.00
2268;BME280;11052;43.338;25.502;2023-04-01T06:07:50;99395.66;;;11.58;100.00
2268;BME280;11052;43.338;25.502;2023-04-01T06:10:19;99392.69;;;11.66;100.00
2268;BME280;11052;43.338;25.502;2023-04-01T06:12:54;99390.72;;;11.71;100.00
2268;BME280;11052;43.338;25.502;2023-04-01T06:15:30;99400.53;;;11.83;100.00
2268;BME280;11052;43.338;25.502;2023-04-01T06:21:28;99394.88;;;11.92;100.00
2268;BME280;11052;43.338;25.502;2023-04-01T06:24:06;99394.34;;;12.03;100.00
2268;BME280;11052;43.338;25.502;2023-04-01T06:26:43;99399.94;;;12.12;100.00
2268;BME280;11052;43.338;25.502;2023-04-01T06:29:35;99389.53;;;12.12;100.00
2268;BME280;11052;43.338;25.502;2023-04-01T06:32:20;99396.22;;;12.17;100.00
2268;BME280;11052;43.338;25.502;2023-04-01T06:35:12;99396.00;;;12.21;100.00
2268;BME280;11052;43.338;25.502;2023-04-01T06:37:56;99384.69;;;12.22;100.00
2268;BME280;11052;43.338;25.502;2023-04-01T06:40:48;99386.81;;;12.31;100.00
2268;BME280;11052;43.338;25.502;2023-04-01T06:43:25;99375.81;;;12.26;100.00
2268;BME280;11052;43.338;25.502;2023-04-01T06:46:04;99383.28;;;12.32;100.00
2268;BME280;11052;43.338;25.502;2023-04-01T06:48:49;99378.59;;;12.39;100.00
2268;BME280;11052;43.338;25.502;2023-04-01T06:51:27;99388.75;;;12.43;100.00
2268;BME280;11052;43.338;25.502;2023-04-01T06:54:05;99391.03;;;12.50;100.00
2268;BME280;11052;43.338;25.502;2023-04-01T06:56:37;99391.28;;;12.45;100.00
2268;BME280;11052;43.338;25.502;2023-04-01T06:59:10;99389.53;;;12.45;100.00
2268;BME280;11052;43.338;25.502;2023-04-01T07:01:41;99398.75;;;12.51;100.00
2268;BME280;11052;43.338;25.502;2023-04-01T07:04:13;99395.75;;;12.59;100.00
2268;BME280;11052;43.338;25.502;2023-04-01T07:06:46;99396.19;;;12.67;100.00
2268;BME280;11052;43.338;25.502;2023-04-01T07:09:18;99387.66;;;12.80;100.00
2268;BME280;11052;43.338;25.502;2023-04-01T07:11:47;99391.09;;;12.81;100.00
2268;BME280;11052;43.338;25.502;2023-04-01T07:14:20;99388.09;;;12.89;100.00
2268;BME280;11052;43.338;25.502;2023-04-01T07:16:51;99391.50;;;13.05;100.00
2268;BME280;11052;43.338;25.502;2023-04-01T07:19:25;99395.28;;;13.15;100.00
2268;BME280;11052;43.338;25.502;2023-04-01T07:21:59;99387.09;;;13.23;100.00
2268;BME280;11052;43.338;25.502;2023-04-01T07:24:33;99380.44;;;13.33;100.00
2268;BME280;11052;43.338;25.502;2023-04-01T07:27:01;99368.59;;;13.43;100.00
2268;BME280;11052;43.338;25.502;2023-04-01T07:29:28;99354.97;;;13.54;100.00
2268;BME280;11052;43.338;25.502;2023-04-01T07:34:57;99345.81;;;13.76;100.00
2268;BME280;11052;43.338;25.502;2023-04-01T07:37:30;99337.44;;;13.71;100.00
2268;BME280;11052;43.338;25.502;2023-04-01T07:40:11;99334.38;;;13.79;100.00
2268;BME280;11052;43.338;25.502;2023-04-01T07:42:57;99326.31;;;13.98;100.00
2268;BME280;11052;43.338;25.502;2023-04-01T07:45:31;99334.88;;;14.14;100.00
2268;BME280;11052;43.338;25.502;2023-04-01T07:48:09;99328.56;;;14.32;100.00
2268;BME280;11052;43.338;25.502;2023-04-01T07:50:46;99318.53;;;14.55;100.00
2268;BME280;11052;43.338;25.502;2023-04-01T07:53:21;99312.97;;;14.73;100.00
2268;BME280;11052;43.338;25.502;2023-04-01T07:56:00;99317.56;;;14.97;100.00
2268;BME280;11052;43.338;25.502;2023-04-01T07:58:32;99317.16;;;15.30;100.00
2268;BME280;11052;43.338;25.502;2023-04-01T08:01:09;99321.53;;;15.56;100.00
2268;BME280;11052;43.338;25.502;2023-04-01T08:03:54;99327.09;;;15.64;100.00
2268;BME280;11052;43.338;25.502;2023-04-01T08:06:30;99330.53;;;15.65;100.00
2268;BME280;11052;43.338;25.502;2023-04-01T08:09:04;99328.97;;;15.62;100.00
2268;BME280;11052;43.338;25.502;2023-04-01T08:11:45;99321.84;;;15.64;100.00
2268;BME280;11052;43.338;25.502;2023-04-01T08:14:21;99313.91;;;15.66;100.00
2268;BME280;11052;43.338;25.502;2023-04-01T08:16:56;99316.84;;;15.61;100.00
2268;BME280;11052;43.338;25.502;2023-04-01T08:19:31;99313.19;;;15.64;100.00
2268;BME280;11052;43.338;25.502;2023-04-01T08:22:10;99319.25;;;15.64;100.00
2268;BME280;11052;43.338;25.502;2023-04-01T08:24:41;99326.97;;;15.66;100.00
2268;BME280;11052;43.338;25.502;2023-04-01T08:27:16;99318.00;;;15.57;100.00
2268;BME280;11052;43.338;25.502;2023-04-01T08:29:48;99315.78;;;15.64;100.00
2268;BME280;11052;43.338;25.502;2023-04-01T08:32:21;99307.75;;;15.67;100.00
2268;BME280;11052;43.338;25.502;2023-04-01T08:35:02;99296.06;;;15.72;100.00
2268;BME280;11052;43.338;25.502;2023-04-01T08:37:36;99313.19;;;15.77;100.00
2268;BME280;11052;43.338;25.502;2023-04-01T08:40:24;99291.25;;;15.79;95.43
2268;BME280;11052;43.338;25.502;2023-04-01T08:43:07;99296.38;;;15.93;94.74
2268;BME280;11052;43.338;25.502;2023-04-01T08:45:45;99292.00;;;16.06;89.78
2268;BME280;11052;43.338;25.502;2023-04-01T08:48:31;99280.06;;;16.28;94.22
2268;BME280;11052;43.338;25.502;2023-04-01T08:51:18;99286.72;;;16.45;87.15
2268;BME280;11052;43.338;25.502;2023-04-01T08:54:07;99290.63;;;16.63;84.03
2268;BME280;11052;43.338;25.502;2023-04-01T08:56:41;99284.34;;;16.78;83.53
2268;BME280;11052;43.338;25.502;2023-04-01T08:59:37;99284.91;;;16.94;88.64
2268;BME280;11052;43.338;25.502;2023-04-01T09:02:46;99296.47;;;17.27;85.78
2268;BME280;11052;43.338;25.502;2023-04-01T09:05:35;99296.88;;;17.45;87.06
2268;BME280;11052;43.338;25.502;2023-04-01T09:08:11;99293.13;;;17.60;84.43
2268;BME280;11052;43.338;25.502;2023-04-01T09:11:06;99302.97;;;17.80;79.36
2268;BME280;11052;43.338;25.502;2023-04-01T09:13:59;99290.47;;;17.95;79.65
2268;BME280;11052;43.338;25.502;2023-04-01T09:16:46;99285.59;;;18.35;85.60
2268;BME280;11052;43.338;25.502;2023-04-01T09:19:24;99283.78;;;18.80;79.05
2268;BME280;11052;43.338;25.502;2023-04-01T09:22:18;99285.34;;;19.36;84.80
2268;BME280;11052;43.338;25.502;2023-04-01T09:25:12;99268.13;;;19.84;79.62
2268;BME280;11052;43.338;25.502;2023-04-01T09:27:44;99269.56;;;20.28;76.39
2268;BME280;11052;43.338;25.502;2023-04-01T09:30:38;99263.03;;;20.53;76.56
2268;BME280;11052;43.338;25.502;2023-04-01T09:33:46;99249.03;;;20.22;74.59
2268;BME280;11052;43.338;25.502;2023-04-01T09:36:38;99252.72;;;20.10;67.08
2268;BME280;11052;43.338;25.502;2023-04-01T09:39:23;99236.28;;;20.48;69.42
2268;BME280;11052;43.338;25.502;2023-04-01T09:42:02;99230.47;;;20.54;64.61
2268;BME280;11052;43.338;25.502;2023-04-01T09:44:36;99228.69;;;20.65;63.48
2268;BME280;11052;43.338;25.502;2023-04-01T09:47:21;99217.81;;;20.39;63.61
2268;BME280;11052;43.338;25.502;2023-04-01T09:50:16;99200.25;;;20.49;62.89
2268;BME280;11052;43.338;25.502;2023-04-01T09:52:51;99190.59;;;20.78;66.66
2268;BME280;11052;43.338;25.502;2023-04-01T10:01:50;99198.88;;;21.12;60.86
2268;BME280;11052;43.338;25.502;2023-04-01T10:04:53;99195.41;;;21.02;60.71
2268;BME280;11052;43.338;25.502;2023-04-01T10:07:54;99189.59;;;21.08;63.79
2268;BME280;11052;43.338;25.502;2023-04-01T10:10:55;99184.75;;;20.75;59.11
2268;BME280;11052;43.338;25.502;2023-04-01T10:19:44;99183.91;;;20.93;60.19
2268;BME280;11052;43.338;25.502;2023-04-01T10:22:37;99182.94;;;21.23;61.20
2268;BME280;11052;43.338;25.502;2023-04-01T10:25:29;99165.31;;;21.24;58.81
2268;BME280;11052;43.338;25.502;2023-04-01T10:28:18;99168.50;;;21.27;59.17
2268;BME280;11052;43.338;25.502;2023-04-01T10:31:20;99163.91;;;21.20;59.81
2268;BME280;11052;43.338;25.502;2023-04-01T10:34:29;99146.13;;;21.41;56.23
2268;BME280;11052;43.338;25.502;2023-04-01T10:37:15;99149.88;;;21.76;60.81
2268;BME280;11052;43.338;25.502;2023-04-01T10:46:48;99132.81;;;21.43;58.59
2268;BME280;11052;43.338;25.502;2023-04-01T10:49:41;99128.47;;;21.79;60.41
2268;BME280;11052;43.338;25.502;2023-04-01T10:52:52;99108.22;;;21.52;58.10
2268;BME280;11052;43.338;25.502;2023-04-01T10:55:42;99092.53;;;21.50;57.13
2268;BME280;11052;43.338;25.502;2023-04-01T10:58:36;99086.03;;;21.45;51.97
2268;BME280;11052;43.338;25.502;2023-04-01T11:01:22;99092.97;;;21.46;56.18
2268;BME280;11052;43.338;25.502;2023-04-01T11:04:40;99093.84;;;21.37;59.20
2268;BME280;11052;43.338;25.502;2023-04-01T11:07:49;99089.81;;;21.33;62.72
2268;BME280;11052;43.338;25.502;2023-04-01T11:10:57;99102.50;;;21.00;58.71
2268;BME280;11052;43.338;25.502;2023-04-01T11:14:12;99094.31;;;21.03;60.48
2268;BME280;11052;43.338;25.502;2023-04-01T11:17:21;99093.56;;;21.20;58.15
2268;BME280;11052;43.338;25.502;2023-04-01T11:20:20;99093.72;;;21.09;60.36
2268;BME280;11052;43.338;25.502;2023-04-01T11:23:07;99082.03;;;21.41;59.30
2268;BME280;11052;43.338;25.502;2023-04-01T11:25:55;99077.66;;;21.03;60.07
2268;BME280;11052;43.338;25.502;2023-04-01T11:28:48;99060.03;;;21.03;61.11
2268;BME280;11052;43.338;25.502;2023-04-01T11:31:32;99071.31;;;20.86;61.29
2268;BME280;11052;43.338;25.502;2023-04-01T11:34:09;99073.03;;;20.68;61.74
2268;BME280;11052;43.338;25.502;2023-04-01T11:36:49;99081.34;;;20.53;61.18
2268;BME280;11052;43.338;25.502;2023-04-01T11:39:29;99086.63;;;20.63;61.68
2268;BME280;11052;43.338;25.502;2023-04-01T11:42:11;99097.34;;;20.12;61.48
2268;BME280;11052;43.338;25.502;2023-04-01T11:44:47;99089.66;;;20.39;62.67
2268;BME280;11052;43.338;25.502;2023-04-01T11:47:33;99093.53;;;20.54;62.27
2268;BME280;11052;43.338;25.502;2023-04-01T11:50:19;99081.22;;;20.45;63.70
2268;BME280;11052;43.338;25.502;2023-04-01T11:53:09;99087.84;;;20.40;63.81
2268;BME280;11052;43.338;25.502;2023-04-01T11:55:50;99075.63;;;20.29;62.72
2268;BME280;11052;43.338;25.502;2023-04-01T12:04:50;99069.25;;;20.22;63.91
2268;BME280;11052;43.338;25.502;2023-04-01T12:07:32;99068.84;;;20.36;61.08
2268;BME280;11052;43.338;25.502;2023-04-01T12:10:12;99056.97;;;20.42;62.44
2268;BME280;11052;43.338;25.502;2023-04-01T12:12:48;99051.28;;;20.66;62.50
2268;BME280;11052;43.338;25.502;2023-04-01T12:15:23;99046.22;;;20.82;60.95
2268;BME280;11052;43.338;25.502;2023-04-01T12:18:00;99041.47;;;20.95;61.29
2268;BME280;11052;43.338;25.502;2023-04-01T12:20:48;99034.19;;;20.79;60.26
2268;BME280;11052;43.338;25.502;2023-04-01T12:23:40;99042.53;;;20.55;60.86
2268;BME280;11052;43.338;25.502;2023-04-01T12:26:26;99034.91;;;20.33;62.94
2268;BME280;11052;43.338;25.502;2023-04-01T12:29:08;99035.50;;;20.46;61.32
2268;BME280;11052;43.338;25.502;2023-04-01T12:31:50;99030.75;;;20.59;62.39
2268;BME280;11052;43.338;25.502;2023-04-01T12:37:21;99030.75;;;19.92;62.05
2268;BME280;11052;43.338;25.502;2023-04-01T12:40:17;99032.00;;;20.17;62.66
2268;BME280;11052;43.338;25.502;2023-04-01T12:43:03;99029.09;;;20.58;62.26
2268;BME280;11052;43.338;25.502;2023-04-01T12:45:33;99027.72;;;20.64;61.38
2268;BME280;11052;43.338;25.502;2023-04-01T12:48:10;99017.31;;;20.34;63.26
2268;BME280;11052;43.338;25.502;2023-04-01T12:53:54;99032.53;;;20.11;63.02
2268;BME280;11052;43.338;25.502;2023-04-01T12:56:34;99033.78;;;19.97;64.18
2268;BME280;11052;43.338;25.502;2023-04-01T12:59:26;99035.84;;;19.93;64.26
2268;BME280;11052;43.338;25.502;2023-04-01T13:02:11;99036.97;;;20.10;65.62
2268;BME280;11052;43.338;25.502;2023-04-01T13:04:57;99026.03;;;20.15;64.00
2268;BME280;11052;43.338;25.502;2023-04-01T13:07:45;99030.47;;;19.85;63.38
2268;BME280;11052;43.338;25.502;2023-04-01T13:10:29;99036.47;;;19.57;65.00
2268;BME280;11052;43.338;25.502;2023-04-01T13:15:54;99037.47;;;19.66;66.17
2268;BME280;11052;43.338;25.502;2023-04-01T13:18:31;99021.56;;;19.37;65.90
2268;BME280;11052;43.338;25.502;2023-04-01T13:21:08;99015.09;;;19.10;67.12
2268;BME280;11052;43.338;25.502;2023-04-01T13:23:51;99016.75;;;19.02;67.86
2268;BME280;11052;43.338;25.502;2023-04-01T13:26:27;99007.44;;;18.67;69.06
2268;BME280;11052;43.338;25.502;2023-04-01T13:29:03;99009.84;;;18.59;70.21
2268;BME280;11052;43.338;25.502;2023-04-01T13:31:51;99003.75;;;18.38;70.38
2268;BME280;11052;43.338;25.502;2023-04-01T13:34:30;98990.69;;;18.26;71.36
2268;BME280;11052;43.338;25.502;2023-04-01T13:37:10;98994.50;;;18.01;72.47
2268;BME280;11052;43.338;25.502;2023-04-01T13:39:49;98994.88;;;17.97;73.24
2268;BME280;11052;43.338;25.502;2023-04-01T13:42:25;98995.53;;;17.78;73.69
2268;BME280;11052;43.338;25.502;2023-04-01T13:44:57;98989.56;;;17.65;74.96
2268;BME280;11052;43.338;25.502;2023-04-01T13:47:54;98989.84;;;17.51;76.51
2268;BME280;11052;43.338;25.502;2023-04-01T13:53:37;98981.53;;;17.34;78.04
2268;BME280;11052;43.338;25.502;2023-04-01T13:56:19;98979.31;;;17.30;79.95
2268;BME280;11052;43.338;25.502;2023-04-01T13:59:19;98993.47;;;17.27;79.73
2268;BME280;11052;43.338;25.502;2023-04-01T14:01:53;98982.06;;;17.17;79.43
2268;BME280;11052;43.338;25.502;2023-04-01T14:04:46;98981.47;;;17.14;80.49
2268;BME280;11052;43.338;25.502;2023-04-01T14:07:37;98985.38;;;17.19;80.07
2268;BME280;11052;43.338;25.502;2023-04-01T14:10:20;98988.59;;;17.12;80.39
2268;BME280;11052;43.338;25.502;2023-04-01T14:12:58;98990.25;;;17.01;82.85
2268;BME280;11052;43.338;25.502;2023-04-01T14:15:42;98995.50;;;16.90;84.18
2268;BME280;11052;43.338;25.502;2023-04-01T14:18:33;98999.41;;;16.74;87.37
2268;BME280;11052;43.338;25.502;2023-04-01T14:21:28;98995.78;;;16.63;90.08
2268;BME280;11052;43.338;25.502;2023-04-01T14:24:17;99001.47;;;16.57;93.38
2268;BME280;11052;43.338;25.502;2023-04-01T14:27:14;98992.19;;;16.42;96.14
2268;BME280;11052;43.338;25.502;2023-04-01T14:29:56;99018.69;;;16.37;99.60
2268;BME280;11052;43.338;25.502;2023-04-01T14:32:35;99038.47;;;16.18;100.00